Aviation Digital Data Service (ADDS)

Output produced by METARs form (0332 UTC 28 June 2017)
found at http://www.aviationweather.gov/adds/metars/
 
KILE 280256Z AUTO 16006KT 10SM CLR 25/22 A2996 RMK AO2 SLPNO P0001 60002 T02500217 51006
KILE 280156Z AUTO 16009KT 10SM CLR 26/22 A2995 RMK AO2 SLPNO T02560222
KILE 280056Z AUTO 16012KT 10SM CLR 27/22 A2995 RMK AO2 SLPNO P0001 T02720217
KILE 272356Z AUTO 15011KT 10SM CLR 29/20 A2994 RMK AO2 SLPNO P0001 6//// T02890200 10328 20289 56008
KILE 272256Z AUTO 12013G21KT 10SM FEW047 SCT055 BKN110 31/21 A2994 RMK AO2 SLPNO P0001 T03110211
KILE 272156Z AUTO 16009KT 10SM FEW048 SCT120 32/22 A2995 RMK AO2 LTG DSNT SE SLPNO P0001 T03220217
KILE 272056Z AUTO 10005KT 10SM BKN046 32/22 A2996 RMK AO2 SLPNO P0001 6//// T03220217
KILE 271956Z AUTO 13009KT 10SM BKN044 BKN050 31/22 A2998 RMK AO2 SLPNO P0001 T03110222
KILE 271856Z AUTO VRB04KT 10SM 31/22 A3000 RMK AO2 SLPNO T03060217
KILE 271756Z AUTO VRB04KT 10SM FEW027 29/22 A3002 RMK AO2 SLP170 P0001 60005 T02940222 10300 20211 58009
KILE 271711Z AUTO 14007KT 090V180 10SM SCT025 29/23 A3003 RMK AO2
KILE 271656Z AUTO 09005KT 10SM BKN023 BKN041 29/22 A3004 RMK AO2 SLP177 P0001 T02890222
KILE 271556Z AUTO VRB03KT 10SM FEW028 BKN043 28/23 A3005 RMK AO2 SLP179 T02830228
KILE 271553Z AUTO 10005KT 10SM FEW028 BKN043 28/23 A3005 RMK AO2
KILE 271523Z AUTO VRB03KT 10SM BKN028 27/22 A3006 RMK AO2 TSNO
KILE 271456Z AUTO VRB03KT 10SM CLR 26/22 A3007 RMK AO2 SLP185 P0001 60003 T02560222 51012
KILE 271432Z AUTO 07003KT 10SM FEW007 26/22 A3007 RMK AO2
KILE 271356Z AUTO 00000KT 10SM OVC005 24/22 A3006 RMK AO2 SLP184 P0001 T02390222
KILE 271312Z AUTO VRB03KT 10SM BKN005 24/23 A3004 RMK AO2
KILE 271256Z AUTO 06003KT 10SM CLR 23/22 A3004 RMK AO2 SLP177 P0001 T02330222
KILE 271156Z AUTO 02003KT 10SM CLR 21/21 A3003 RMK AO2 SLP174 60004 7//// T02110211 10233 20211 56001
KILE 271056Z AUTO 00000KT 7SM CLR 21/21 A3003 RMK AO2 SLP177 P0001 T02110211
KILE 270956Z AUTO 00000KT 10SM CLR 22/22 A3003 RMK AO2 SLP173 P0001 T02170217
KILE 270856Z AUTO 00000KT 10SM CLR 22/22 A3003 RMK AO2 SLP174 60002 T02170217 58006
KILE 270756Z AUTO 00000KT 10SM CLR 22/22 A3005 RMK AO2 SLP178 P0001 T02220217
KILE 270656Z AUTO 00000KT 10SM FEW010 23/22 A3005 RMK AO2 SLP179 P0001 T02280217
KILE 270556Z AUTO 17006KT 10SM SCT065 23/22 A3005 RMK AO2 SLP179 60002 T02330222 10283 20233 403110217 50009
KILE 270456Z AUTO 23004KT 10SM BKN055 23/22 A3006 RMK AO2 TSE04RAE28 SLP183 P0001 T02330222 TSNO
KILE 270410Z AUTO 20009KT 10SM -RA SCT026 OVC039 24/23 A3004 RMK AO2 TSE04 P0000
KILE 270356Z AUTO 19013KT 10SM VCTS -RA BKN026 OVC037 25/23 A3004 RMK AO2 LTG DSNT S AND SW TSB44RAB32 SLP176 P0000 T02500228
KILE 270348Z AUTO 18012G16KT 10SM VCTS -RA BKN028 BKN037 OVC047 25/23 A3004 RMK AO2 LTG DSNT S AND SW TSB44RAB32 P0000